Detalii statie AFILIU TRANS MIZIL [00001982]

Toti senzorii

Date Temperatura solului [C]Precipitatii [mm]Voltaj baterie [mV]Leaf Wetness [Min]HC Air temperature [C]HC Relative humidity [%]Punctul de roua [C]
medieminmaxsumaultimatimpmedieminmaxmediemediemin
2018-06-20 10:00:00 0 7216 30.25 29.3 30.94 42.55 15.9 15.1
2018-06-20 11:00:00 0 7206 30.78 29.97 32.16 41.09 15.7 15
2018-06-20 12:00:00 0 7216 31.23 30.31 32.06 39.57 15.6 15.1
2018-06-20 13:00:00 0 7216 31.89 30.64 32.71 35.99 14.7 14.2
2018-06-20 14:00:00 0 7216 33.07 32.65 33.8 34.24 14.9 14.5
2018-06-20 15:00:00 0 7216 32.78 32.3 33.3 34.27 14.7 13.7
2018-06-20 16:00:00 0 7216 32.75 32.24 33.33 33.14 14 13.2
2018-06-20 17:00:00 0 7216 31.37 30.51 33.54 38.26 15.1 14.4
2018-06-20 18:00:00 0 7196 30.85 30.41 31.72 41.45 15.9 15.2
2018-06-20 19:00:00 0 7196 29.25 28.7 30.26 46.74 16.4 15.9
2018-06-20 20:00:00 0 6884 28.38 26.94 29.28 49.78 16.6 16.3
2018-06-20 21:00:00 0 6864 25.67 24.81 26.46 59.7 17.1 16.9
2018-06-20 22:00:00 0 6874 23.95 23.16 24.98 65.26 16.8 16.4
2018-06-20 23:00:00 0 6874 23.45 22.71 24.23 68.49 17.1 16.8
2018-06-21 00:00:00 0 6864 23.25 23.02 23.56 69.34 17.1 17
2018-06-21 01:00:00 0 6854 22.89 22.19 23.5 72.09 17.4 17.2
2018-06-21 02:00:00 0 6854 22.39 21.88 22.68 76.49 17.8 17.6
2018-06-21 03:00:00 0 6864 21.47 21.24 21.8 82.76 18.3 18
2018-06-21 04:00:00 0 6844 21.62 21.32 22.36 81.53 18.1 18.1
2018-06-21 05:00:00 0 6854 22.24 20.28 23.09 74.99 17.4 16.6
2018-06-21 06:00:00 0 6914 22.07 20.5 22.86 78.7 18 17.2
2018-06-21 07:00:00 0 7098 23.25 22.61 23.7 75.9 18.6 18.3
2018-06-21 08:00:00 0 7206 25.05 23.53 27.09 67.81 18.4 17.8
2018-06-21 09:00:00 0 7206 26.7 25.95 28.07 56.96 17.2 16.7
2018-06-21 10:00:00 0 7216 27.9 26.67 30.49 52.7 17 16.5
2018-06-21 11:00:00 0 7206 30.2 29.03 31.28 42.26 15.6 14.8
2018-06-21 12:00:00 0 7216 30.14 29.49 30.79 43.36 16 14.8
2018-06-21 13:00:00 0 7216 30.07 29.3 30.86 48.27 17.6 16.7
2018-06-21 14:00:00 0 7216 30.99 30.33 31.92 43.62 16.9 16.2
2018-06-21 15:00:00 0 7226 30.34 29.2 31.95 43.03 16.1 15.3
2018-06-21 16:00:00 0 7216 31.36 30.82 32.07 39.67 15.7 14.6
2018-06-21 17:00:00 0 7196 30.68 30.14 31.29 40.84 15.5 14.9
2018-06-21 18:00:00 0 7070 29.63 29 30.06 44.14 15.9 15.3
2018-06-21 19:00:00 0 7010 27.61 26.34 28.8 51.8 16.6 16.2
2018-06-21 20:00:00 0 6874 25.36 24.38 26.22 62.75 17.5 17.2
2018-06-21 21:00:00 0 6874 23.89 23.14 24.63 72.75 18.5 18
2018-06-21 22:00:00 0 6854 21.75 20.78 22.86 87.43 19.4 19.1
2018-06-21 23:00:00 0 6854 20.66 19.91 21.3 93.77 19.5 18.9
2018-06-22 00:00:00 0 6854 20 19.6 20.56 97.21 19.4 19.1
2018-06-22 01:00:00 0 6844 20.06 19.74 20.42 95.89 19.2 18.5
2018-06-22 02:00:00 0 6844 19.28 18.88 19.81 98.06 18.8 18.6
2018-06-22 03:00:00 0 6844 18.56 18.28 18.87 100 18.5 18.2
2018-06-22 04:00:00 0 6844 17.85 17.39 18.35 100 17.8 17.3
2018-06-22 05:00:00 0 6844 16.85 16.57 17.31 100 16.8 16.5
2018-06-22 06:00:00 0 6922 17.39 16.81 18.35 100 17.3 16.8
2018-06-22 07:00:00 0 7040 21.01 18.66 22.54 87.53 18.6 18
2018-06-22 08:00:00 0 7080 23.88 22.41 25.51 71.32 18.1 17.3
2018-06-22 09:00:00 0 7206 27.11 25.76 28.4 56.07 17.3 17